Time;durP1;ratioP1;P1;durP2;ratioP2;P2;SDS_P1;SDS_P2;PMS_P1;PMS_P2;Temp;Humidity;BMP_temperature;BMP_pressure;BME280_temperature;BME280_humidity;BME280_pressure;Samples;Min_cycle;Max_cycle;Signal;HPM_P1;HPM_P2
2023/01/28 00:02:01;;;;;;;23.50;16.50;;;;;;;-0.96;73.23;100496.83;109205;1254;57242;-70
2023/01/28 00:04:28;;;;;;;22.80;16.50;;;;;;;-0.97;73.10;100498.95;109401;1256;65274;-76
2023/01/28 00:06:55;;;;;;;21.00;16.30;;;;;;;-1.00;73.06;100498.16;109380;1256;59390;-71
2023/01/28 00:09:21;;;;;;;23.90;16.60;;;;;;;-1.03;73.06;100497.91;109379;1255;64752;-70
2023/01/28 00:11:48;;;;;;;24.50;17.10;;;;;;;-1.06;73.04;100495.23;109115;1256;57438;-71
2023/01/28 00:14:15;;;;;;;22.10;15.90;;;;;;;-1.08;72.95;100495.27;109372;1256;57234;-71
2023/01/28 00:16:42;;;;;;;23.70;16.60;;;;;;;-1.09;72.93;100495.15;109369;1256;65099;-71
2023/01/28 00:19:09;;;;;;;23.60;16.70;;;;;;;-1.11;72.89;100498.14;109182;1256;58923;-70
2023/01/28 00:21:36;;;;;;;24.70;16.00;;;;;;;-1.13;72.89;100499.60;109372;1256;64711;-70
2023/01/28 00:24:03;;;;;;;23.50;16.50;;;;;;;-1.17;72.87;100501.24;109324;1256;58148;-70
2023/01/28 00:26:30;;;;;;;24.60;17.40;;;;;;;-1.19;72.84;100499.41;109364;1255;58049;-70
2023/01/28 00:28:56;;;;;;;22.80;16.90;;;;;;;-1.23;72.79;100494.00;109361;1256;66088;-70
2023/01/28 00:31:24;;;;;;;23.30;16.50;;;;;;;-1.26;72.78;100490.12;109403;1255;59370;-70
2023/01/28 00:33:53;;;;;;;23.40;17.00;;;;;;;-1.29;72.75;100495.73;109178;1256;65023;-70
2023/01/28 00:41:14;;;;;;;24.60;16.30;;;;;;;-1.44;72.62;100487.88;109310;1255;58155;-71
2023/01/28 00:43:44;;;;;;;23.20;16.40;;;;;;;-1.52;72.55;100490.86;109178;1255;66397;-71
2023/01/28 00:46:12;;;;;;;23.90;16.60;;;;;;;-1.58;72.58;100497.77;109318;1255;58512;-71
2023/01/28 00:48:40;;;;;;;24.10;17.00;;;;;;;-1.66;72.52;100499.20;109203;1255;64998;-73
2023/01/28 00:51:12;;;;;;;25.20;17.20;;;;;;;-1.74;72.53;100500.62;109039;1255;58309;-70
2023/01/28 00:53:39;;;;;;;23.30;16.60;;;;;;;-1.80;72.60;100500.44;109135;1255;58703;-70
2023/01/28 00:56:07;;;;;;;24.90;17.10;;;;;;;-1.85;72.65;100500.05;109408;1255;66254;-70
2023/01/28 01:03:22;;;;;;;23.00;16.20;;;;;;;-2.01;72.55;100505.99;109319;1256;63897;-70
2023/01/28 01:05:49;;;;;;;23.90;16.50;;;;;;;-2.09;72.53;100504.33;109298;1256;58153;-70
2023/01/28 01:08:19;;;;;;;25.40;17.20;;;;;;;-2.15;72.64;100503.77;109165;1256;58223;-70
2023/01/28 01:10:46;;;;;;;25.40;17.90;;;;;;;-2.21;72.66;100497.72;109277;1256;66137;-72
2023/01/28 01:13:13;;;;;;;24.90;17.10;;;;;;;-2.26;72.68;100498.02;109319;1256;58271;-70
2023/01/28 01:15:41;;;;;;;24.70;17.10;;;;;;;-2.32;72.72;100498.14;109124;1256;64831;-70
2023/01/28 01:18:08;;;;;;;22.60;17.20;;;;;;;-2.38;72.77;100496.06;109293;1256;58196;-70
2023/01/28 01:20:38;;;;;;;23.80;17.30;;;;;;;-2.42;72.87;100494.61;109332;1255;58146;-70
2023/01/28 01:23:05;;;;;;;25.10;17.00;;;;;;;-2.45;72.91;100496.08;109331;1256;64841;-70
2023/01/28 01:25:32;;;;;;;25.50;17.40;;;;;;;-2.48;73.00;100498.05;109192;1255;59113;-70
2023/01/28 01:27:59;;;;;;;26.10;17.60;;;;;;;-2.52;72.91;100499.16;109278;1256;65050;-70
2023/01/28 01:30:26;;;;;;;25.30;17.50;;;;;;;-2.56;72.98;100498.91;109086;1255;58177;-70
2023/01/28 01:32:53;;;;;;;25.50;17.30;;;;;;;-2.59;72.98;100498.29;109300;1255;58164;-70
2023/01/28 01:35:20;;;;;;;23.30;16.30;;;;;;;-2.63;72.97;100493.73;109335;1255;66193;-70
2023/01/28 01:37:48;;;;;;;21.40;15.70;;;;;;;-2.67;72.97;100493.48;109329;1256;59289;-70
2023/01/28 01:40:15;;;;;;;26.20;17.40;;;;;;;-2.70;73.02;100485.80;109137;1255;63718;-74
2023/01/28 01:42:42;;;;;;;26.30;17.50;;;;;;;-2.74;73.05;100491.05;109168;1256;58225;-70
2023/01/28 01:45:13;;;;;;;24.70;17.00;;;;;;;-2.77;73.11;100493.56;109314;1256;58282;-69
2023/01/28 01:47:47;;;;;;;25.20;17.20;;;;;;;-2.80;73.18;100492.41;109159;1257;66266;-70
2023/01/28 01:50:13;;;;;;;;;;;;;;;-2.83;73.21;100493.33;109385;1255;58237;-69
2023/01/28 01:52:40;;;;;;;27.30;17.20;;;;;;;-2.86;73.28;100495.48;109273;1256;65138;-70
2023/01/28 01:55:11;;;;;;;28.50;17.20;;;;;;;-2.90;73.27;100497.11;109083;1256;58452;-70
2023/01/28 01:57:37;;;;;;;40.40;28.40;;;;;;;-2.94;73.30;100505.11;109179;1257;58142;-69
2023/01/28 02:00:05;;;;;;;30.70;20.70;;;;;;;-2.97;73.32;100503.83;109138;1256;66173;-70
2023/01/28 02:02:42;;;;;;;27.50;20.00;;;;;;;-3.01;73.40;100504.93;109133;1256;59178;-70
2023/01/28 02:05:10;;;;;;;28.10;19.10;;;;;;;-3.04;73.33;100506.71;109066;1257;65294;-70
2023/01/28 02:07:37;;;;;;;26.30;17.90;;;;;;;-3.06;73.39;100504.02;109213;1256;58119;-70
2023/01/28 02:10:04;;;;;;;26.30;18.60;;;;;;;-3.07;73.44;100501.97;109086;1256;58087;-70
2023/01/28 02:12:36;;;;;;;25.70;18.50;;;;;;;-3.08;73.36;100500.09;109071;1256;65082;-70
2023/01/28 02:15:09;;;;;;;24.80;17.30;;;;;;;-3.11;73.39;100498.42;109025;1256;58250;-69
2023/01/28 02:17:38;;;;;;;23.50;17.30;;;;;;;-3.14;73.37;100498.67;109134;1257;63696;-69
2023/01/28 02:20:05;;;;;;;25.90;17.80;;;;;;;-3.20;73.35;100500.15;109006;1256;58244;-70
2023/01/28 02:27:53;;;;;;;22.90;16.20;;;;;;;-3.25;73.54;100510.98;109223;1256;63759;-70
2023/01/28 02:30:32;;;;;;;25.10;17.70;;;;;;;-3.26;73.65;100508.57;109262;1256;58927;-70
2023/01/28 02:33:05;;;;;;;24.80;17.50;;;;;;;-3.28;73.67;100509.11;109032;1256;64997;-72
2023/01/28 02:35:34;;;;;;;;;;;;;;;-3.28;73.73;100509.64;109129;1256;58135;-69
2023/01/28 02:38:16;;;;;;;24.50;16.60;;;;;;;-3.29;73.79;100502.23;109102;1256;58088;-69
2023/01/28 02:41:07;;;;;;;27.10;18.30;;;;;;;-3.30;73.80;100500.73;109119;1256;66100;-71
2023/01/28 02:43:45;;;;;;;25.00;18.20;;;;;;;-3.29;73.97;100497.95;109051;1256;58345;-69
2023/01/28 02:49:05;;;;;;;27.00;18.00;;;;;;;-3.27;74.09;100492.40;108916;1255;58296;-70
2023/01/28 02:51:47;;;;;;;28.40;19.10;;;;;;;-3.26;74.14;100490.31;109090;1256;58025;-70
2023/01/28 02:54:44;;;;;;;27.80;18.90;;;;;;;-3.25;74.21;100485.32;109090;1257;66451;-70
2023/01/28 03:02:12;;;;;;;25.80;18.70;;;;;;;-3.29;74.26;100466.60;109187;1255;63835;-70
2023/01/28 03:04:59;;;;;;;26.00;18.10;;;;;;;-3.31;74.35;100465.45;109179;1256;58172;-70
2023/01/28 03:07:26;;;;;;;29.70;18.50;;;;;;;-3.33;74.42;100467.75;109029;1263;58070;-71
2023/01/28 03:09:57;;;;;;;24.40;17.70;;;;;;;-3.35;74.46;100467.09;108973;1257;65987;-71
2023/01/28 03:38:21;;;;;;;25.90;18.60;;;;;;;-3.33;74.95;100462.58;109032;1257;65894;-70
2023/01/28 03:40:50;;;;;;;28.80;18.50;;;;;;;-3.34;74.98;100464.32;109132;1256;59863;-70
2023/01/28 03:43:18;;;;;;;27.60;19.70;;;;;;;-3.34;74.98;100466.89;109003;1261;73715;-73
2023/01/28 03:50:11;;;;;;;25.10;17.80;;;;;;;-3.35;75.06;100472.95;109194;1257;58186;-72
2023/01/28 03:52:50;;;;;;;26.40;18.30;;;;;;;-3.36;75.07;100475.90;109046;1257;66421;-70
2023/01/28 03:55:24;;;;;;;30.20;19.60;;;;;;;-3.35;75.14;100475.88;109114;1257;59284;-71
2023/01/28 03:57:52;;;;;;;39.50;26.60;;;;;;;-3.36;75.07;100477.80;109185;1256;63914;-70
2023/01/28 04:00:20;;;;;;;49.00;31.60;;;;;;;-3.36;75.11;100476.60;109172;1256;58181;-70
2023/01/28 04:02:48;;;;;;;34.00;23.40;;;;;;;-3.35;75.12;100474.67;109053;1257;58235;-70
2023/01/28 04:05:20;;;;;;;33.20;22.20;;;;;;;-3.37;75.07;100471.61;109033;1257;65133;-71
2023/01/28 04:07:55;;;;;;;29.80;19.60;;;;;;;-3.39;75.16;100467.00;109115;1257;59254;-70
2023/01/28 04:10:40;;;;;;;30.10;19.70;;;;;;;-3.39;75.19;100461.83;109126;1257;62562;-73
2023/01/28 04:13:29;;;;;;;33.80;20.30;;;;;;;-3.38;75.17;100461.64;109010;1258;58111;-72
2023/01/28 04:25:15;;;;;;;28.70;19.50;;;;;;;-3.42;75.22;100467.77;108973;1257;58204;-70
2023/01/28 04:27:46;;;;;;;29.70;19.00;;;;;;;-3.43;75.25;100473.45;109151;1257;65113;-70
2023/01/28 04:30:22;;;;;;;28.40;19.00;;;;;;;-3.43;75.25;100472.43;109060;1258;58180;-70
2023/01/28 04:33:22;;;;;;;30.20;20.00;;;;;;;-3.45;75.24;100477.98;108728;1257;58104;-71
2023/01/28 04:35:59;;;;;;;27.20;19.30;;;;;;;-3.46;75.26;100482.14;109129;1257;65115;-70
2023/01/28 04:39:01;;;;;;;28.90;18.90;;;;;;;-3.48;75.24;100487.65;109074;1257;59419;-70
2023/01/28 04:41:37;;;;;;;29.10;19.40;;;;;;;-3.50;75.21;100489.07;109139;1257;65187;-71
2023/01/28 04:44:30;;;;;;;28.40;20.00;;;;;;;-3.50;75.28;100489.44;109029;1257;58194;-70
2023/01/28 04:47:22;;;;;;;27.30;18.50;;;;;;;-3.51;75.25;100485.84;109125;1257;58154;-70
2023/01/28 04:50:25;;;;;;;27.40;19.20;;;;;;;-3.52;75.24;100482.41;108942;1257;66610;-70
2023/01/28 04:53:11;;;;;;;28.20;18.80;;;;;;;-3.53;75.21;100483.65;109060;1257;59441;-71
2023/01/28 04:55:56;;;;;;;27.00;18.90;;;;;;;-3.54;75.20;100495.88;108994;1257;63729;-71
2023/01/28 04:58:28;;;;;;;28.70;19.50;;;;;;;-3.54;75.15;100505.70;109017;1257;58199;-72
2023/01/28 05:01:03;;;;;;;27.10;18.50;;;;;;;-3.57;75.11;100508.84;109002;1257;58208;-70
2023/01/28 05:10:18;;;;;;;28.70;19.40;;;;;;;-3.57;75.23;100516.23;102628;1297;599981;-72
2023/01/28 05:12:47;;;;;;;29.90;19.80;;;;;;;-3.59;75.21;100512.67;104860;1269;59355;-71
2023/01/28 05:15:17;;;;;;;28.20;19.40;;;;;;;-3.60;75.16;100510.80;104946;1267;59295;-71
2023/01/28 05:17:46;;;;;;;30.70;20.20;;;;;;;-3.61;75.24;100509.28;104819;1267;64178;-72
2023/01/28 05:20:17;;;;;;;29.00;19.40;;;;;;;-3.64;75.22;100513.45;104920;1271;60159;-71
2023/01/28 05:22:47;;;;;;;28.20;19.50;;;;;;;-3.65;75.18;100516.58;104857;1267;155097;-72
2023/01/28 05:25:19;;;;;;;30.90;20.40;;;;;;;-3.66;75.20;100519.37;105345;1264;59269;-70
2023/01/28 05:27:50;;;;;;;28.40;19.50;;;;;;;-3.68;75.19;100519.04;105701;1253;59371;-71
2023/01/28 05:30:19;;;;;;;29.90;19.60;;;;;;;-3.69;75.15;100521.64;105648;1253;65210;-69
2023/01/28 05:32:48;;;;;;;29.00;19.70;;;;;;;-3.72;75.13;100520.31;105532;1261;59750;-71
2023/01/28 05:35:22;;;;;;;30.30;20.60;;;;;;;-3.75;75.09;100521.77;105844;1254;65662;-70
2023/01/28 05:37:50;;;;;;;30.50;19.20;;;;;;;-3.77;75.17;100523.51;105719;1254;59758;-71
2023/01/28 05:40:19;;;;;;;29.50;19.60;;;;;;;-3.79;75.13;100524.58;105803;1254;59663;-70
2023/01/28 05:42:47;;;;;;;29.60;20.20;;;;;;;-3.81;75.09;100529.61;105696;1259;66013;-71
2023/01/28 05:45:46;;;;;;;32.10;20.50;;;;;;;-3.85;75.06;100536.55;105761;1257;59683;-70
2023/01/28 05:48:37;;;;;;;28.10;19.40;;;;;;;-3.89;75.07;100545.41;105807;1257;63763;-70
2023/01/28 05:51:05;;;;;;;28.00;19.00;;;;;;;-3.91;75.12;100545.79;105726;1255;59650;-70
2023/01/28 05:53:36;;;;;;;29.60;19.90;;;;;;;-3.91;75.04;100545.45;105900;1254;59653;-70
2023/01/28 05:56:05;;;;;;;31.50;19.40;;;;;;;-3.92;75.11;100544.25;105726;1254;66114;-71
2023/01/28 05:58:34;;;;;;;29.60;19.70;;;;;;;-3.92;75.12;100544.27;105800;1253;59956;-71
2023/01/28 06:01:04;;;;;;;31.10;17.50;;;;;;;-3.92;75.11;100540.83;105896;1254;65677;-70
2023/01/28 08:17:52;;;;;;;37.90;21.60;;;;;;;-4.00;78.70;100512.98;103632;1283;604910;-70
2023/01/28 08:20:21;;;;;;;129.50;26.90;;;;;;;-3.37;77.23;100512.77;104796;1283;124982;-69
2023/01/28 08:22:49;;;;;;;170.80;27.10;;;;;;;-3.33;76.97;100515.26;105305;1269;59455;-70
2023/01/28 08:25:18;;;;;;;157.60;26.40;;;;;;;-3.28;76.84;100513.27;105668;1269;65323;-70
2023/01/28 08:27:46;;;;;;;53.00;22.70;;;;;;;-3.20;76.77;100513.60;105808;1268;59528;-66
2023/01/28 08:30:15;;;;;;;48.20;20.90;;;;;;;-3.10;76.65;100513.23;105003;1267;65582;-67
2023/01/28 08:32:44;;;;;;;34.90;21.60;;;;;;;-2.97;76.74;100511.39;105139;1268;59362;-71
2023/01/28 08:35:16;;;;;;;28.60;19.70;;;;;;;-2.83;76.59;100510.58;105591;1264;59241;-68
2023/01/28 08:37:45;;;;;;;27.90;18.00;;;;;;;-2.71;76.54;100510.29;105233;1266;65048;-68
2023/01/28 08:40:13;;;;;;;29.00;19.10;;;;;;;-2.61;76.35;100511.27;105414;1264;60151;-69
2023/01/28 08:42:47;;;;;;;30.20;19.00;;;;;;;-2.53;76.14;100511.59;105753;1257;65629;-69
2023/01/28 08:45:15;;;;;;;28.30;18.30;;;;;;;-2.44;75.92;100504.15;105923;1255;59791;-68
2023/01/28 08:48:04;;;;;;;27.10;19.00;;;;;;;-2.33;75.75;100498.70;105957;1256;59955;-69
2023/01/28 08:50:34;;;;;;;28.40;18.40;;;;;;;-2.19;75.70;100499.05;105847;1257;65020;-67
2023/01/28 08:53:04;;;;;;;25.30;17.80;;;;;;;-2.08;75.47;100490.98;106349;1264;61468;-68
2023/01/28 08:55:32;;;;;;;28.00;18.40;;;;;;;-1.96;75.29;100485.85;105776;1259;64536;-73
2023/01/28 08:58:09;;;;;;;26.00;18.00;;;;;;;-1.87;74.89;100483.55;105721;1254;59704;-74
2023/01/28 09:00:37;;;;;;;26.90;18.30;;;;;;;-1.84;74.39;100480.34;105845;1254;59657;-71
2023/01/28 09:03:06;;;;;;;24.10;17.30;;;;;;;-1.83;73.96;100477.23;105841;1257;65410;-71
2023/01/28 09:05:36;;;;;;;26.30;17.90;;;;;;;-1.81;73.61;100473.54;105829;1256;59779;-73
2023/01/28 09:08:09;;;;;;;31.10;19.50;;;;;;;-1.70;73.51;100463.23;105700;1254;65722;-68
2023/01/28 09:10:38;;;;;;;25.70;18.60;;;;;;;-1.55;73.32;100457.96;106104;1254;63200;-72
2023/01/28 09:13:08;;;;;;;25.10;17.80;;;;;;;-1.41;73.10;100461.04;105655;1254;60138;-71
2023/01/28 09:15:36;;;;;;;26.40;17.60;;;;;;;-1.27;72.87;100458.36;105666;1264;65921;-76
2023/01/28 09:18:04;;;;;;;25.20;18.00;;;;;;;-1.20;72.40;100456.44;105753;1259;59849;-73
2023/01/28 09:20:43;;;;;;;25.30;17.60;;;;;;;-1.15;72.04;100459.55;106197;1253;65962;-74
2023/01/28 09:23:13;;;;;;;26.10;18.20;;;;;;;-1.06;71.84;100460.84;105994;1263;61425;-77
2023/01/28 09:25:41;;;;;;;25.40;16.80;;;;;;;-0.93;71.66;100451.78;105954;1254;59570;-71
2023/01/28 09:28:09;;;;;;;25.30;16.70;;;;;;;-0.82;71.21;100442.46;105856;1258;65882;-71
2023/01/28 09:30:38;;;;;;;24.30;17.30;;;;;;;-0.73;70.84;100438.73;105960;1258;59975;-71
2023/01/28 09:33:07;;;;;;;25.30;17.50;;;;;;;-0.63;70.57;100435.96;105901;1259;65376;-72
2023/01/28 09:35:35;;;;;;;27.10;17.80;;;;;;;-0.52;70.28;100430.80;105819;1258;59515;-80
2023/01/28 09:38:04;;;;;;;27.90;18.10;;;;;;;-0.46;69.87;100426.94;105760;1255;59731;-69
2023/01/28 09:40:36;;;;;;;26.00;18.60;;;;;;;-0.40;69.54;100425.36;105744;1255;65686;-69
2023/01/28 09:43:12;;;;;;;32.70;22.80;;;;;;;-0.34;69.32;100423.94;105754;1264;59701;-69
2023/01/28 09:45:47;;;;;;;29.90;18.80;;;;;;;-0.26;69.10;100422.98;105771;1260;65628;-70
2023/01/28 09:48:20;;;;;;;24.80;17.40;;;;;;;-0.18;68.70;100419.77;105626;1260;60013;-70
2023/01/28 09:50:52;;;;;;;27.30;20.50;;;;;;;-0.16;68.35;100415.73;105739;1254;59749;-70
2023/01/28 09:53:29;;;;;;;30.10;21.20;;;;;;;-0.14;68.05;100421.18;105905;1260;65899;-70
2023/01/28 09:56:04;;;;;;;24.60;17.60;;;;;;;-0.10;67.98;100423.63;105858;1261;59949;-69
2023/01/28 09:58:34;;;;;;;24.70;17.60;;;;;;;-0.03;67.78;100419.42;105874;1260;64486;-70
2023/01/28 10:01:44;;;;;;;24.50;17.00;;;;;;;-0.06;67.27;100418.66;106007;1253;61875;-71
2023/01/28 10:04:22;;;;;;;26.30;17.10;;;;;;;-0.13;67.10;100417.52;105440;1257;59679;-74
2023/01/28 10:06:54;;;;;;;23.00;16.40;;;;;;;-0.10;67.13;100409.45;107066;1255;65113;-72
2023/01/28 10:09:50;;;;;;;22.60;16.10;;;;;;;-0.01;67.13;100403.25;105988;1259;59807;-75
2023/01/28 10:12:22;;;;;;;25.80;17.30;;;;;;;0.13;66.88;100403.95;105544;1260;64347;-74
2023/01/28 10:15:12;;;;;;;25.30;17.10;;;;;;;0.26;66.80;100399.52;105860;1260;59657;-75
2023/01/28 10:17:44;;;;;;;25.50;16.90;;;;;;;0.42;66.68;100398.75;105971;1257;59724;-73
2023/01/28 10:20:19;;;;;;;26.10;17.80;;;;;;;0.59;66.52;100393.27;105422;1259;66069;-70
2023/01/28 10:23:13;;;;;;;23.10;17.00;;;;;;;0.78;66.46;100391.83;106136;1258;59830;-74
2023/01/28 10:25:43;;;;;;;21.30;15.50;;;;;;;0.98;65.84;100390.52;105688;1260;63833;-76
2023/01/28 10:28:19;;;;;;;25.20;16.10;;;;;;;1.09;65.40;100385.39;105841;1263;59744;-74
2023/01/28 10:30:48;;;;;;;19.80;14.90;;;;;;;1.27;65.48;100381.36;105661;1261;61895;-78
2023/01/28 10:33:27;;;;;;;23.80;16.20;;;;;;;1.49;65.23;100382.52;105643;1260;65080;-75
2023/01/28 10:35:55;;;;;;;22.00;15.50;;;;;;;1.71;64.85;100381.23;105758;1259;59760;-78
2023/01/28 10:38:24;;;;;;;21.30;15.40;;;;;;;1.85;64.09;100379.62;105951;1261;65495;-78
2023/01/28 10:40:54;;;;;;;20.80;14.90;;;;;;;1.84;63.32;100378.78;106066;1259;59571;-76
2023/01/28 10:43:23;;;;;;;21.80;15.60;;;;;;;1.78;62.99;100372.77;105460;1263;60050;-76
2023/01/28 10:46:11;;;;;;;20.40;15.40;;;;;;;1.80;62.98;100367.33;105749;1260;64979;-78
2023/01/28 10:48:43;;;;;;;23.60;15.30;;;;;;;1.89;62.59;100364.85;105789;1257;59718;-79
2023/01/28 10:51:11;;;;;;;21.10;15.10;;;;;;;1.93;62.42;100364.82;105847;1254;65528;-80
2023/01/28 10:53:43;;;;;;;22.00;14.40;;;;;;;2.00;62.18;100363.31;106204;1259;59627;-79
2023/01/28 10:56:26;;;;;;;18.80;14.40;;;;;;;2.04;61.83;100360.35;105620;1254;59727;-73
2023/01/28 10:59:05;;;;;;;19.40;14.70;;;;;;;2.02;61.24;100357.64;106789;1254;65719;-73
2023/01/28 11:01:54;;;;;;;21.90;15.50;;;;;;;2.04;61.36;100351.99;105743;1265;59885;-75
2023/01/28 11:04:25;;;;;;;21.30;15.50;;;;;;;2.11;61.34;100342.15;105656;1254;65296;-75
2023/01/28 11:06:59;;;;;;;23.10;16.40;;;;;;;2.17;61.26;100335.09;105615;1259;59505;-75
2023/01/28 11:09:30;;;;;;;23.60;16.60;;;;;;;2.29;61.04;100334.73;105598;1259;59564;-75
2023/01/28 11:11:58;;;;;;;26.60;17.60;;;;;;;2.35;60.68;100336.54;105712;1254;64903;-75
2023/01/28 11:14:27;;;;;;;30.90;20.30;;;;;;;2.38;60.57;100337.98;105341;1260;60013;-73
2023/01/28 11:16:56;;;;;;;27.70;18.00;;;;;;;2.41;60.51;100335.54;105650;1254;65596;-74
2023/01/28 11:19:30;;;;;;;25.40;17.40;;;;;;;2.46;60.42;100336.02;105568;1254;59634;-73
2023/01/28 11:22:01;;;;;;;25.70;18.50;;;;;;;2.56;60.31;100327.54;105335;1261;59692;-74
2023/01/28 11:24:31;;;;;;;26.10;18.20;;;;;;;2.67;60.12;100320.61;105627;1254;65680;-74
2023/01/28 11:27:16;;;;;;;24.50;17.10;;;;;;;2.77;60.02;100313.50;105681;1255;59876;-74
2023/01/28 11:29:44;;;;;;;25.30;17.00;;;;;;;2.88;59.84;100315.43;105622;1254;65695;-74
2023/01/28 11:32:17;;;;;;;26.90;17.20;;;;;;;2.98;59.43;100315.80;105497;1254;59659;-73
2023/01/28 11:34:50;;;;;;;24.30;16.70;;;;;;;3.01;58.96;100309.93;105727;1260;59645;-74
2023/01/28 11:37:21;;;;;;;25.00;17.70;;;;;;;3.02;58.62;100307.42;105762;1254;64867;-74
2023/01/28 11:40:15;;;;;;;26.30;18.00;;;;;;;3.01;58.58;100311.65;105731;1254;59920;-74
2023/01/28 11:42:52;;;;;;;25.20;16.60;;;;;;;3.00;58.51;100309.98;106505;1254;65250;-74
2023/01/28 11:45:46;;;;;;;23.50;17.10;;;;;;;3.00;58.38;100310.33;106168;1254;59663;-75
2023/01/28 11:48:23;;;;;;;22.80;16.40;;;;;;;2.97;58.18;100314.62;105984;1254;59987;-75
2023/01/28 11:51:03;;;;;;;23.40;16.20;;;;;;;2.88;57.90;100315.09;105762;1255;64202;-75
2023/01/28 11:53:45;;;;;;;22.50;16.40;;;;;;;2.73;57.85;100322.05;105902;1254;59827;-75
2023/01/28 11:56:52;;;;;;;27.60;17.40;;;;;;;2.66;58.17;100321.00;105738;1254;65575;-74
2023/01/28 11:59:27;;;;;;;26.70;17.30;;;;;;;2.64;58.14;100318.14;105579;1258;60160;-74
2023/01/28 14:15:53;;;;;;;23.80;16.90;;;;;;;0.52;62.61;100319.31;103346;1285;603482;-79
2023/01/28 14:18:35;;;;;;;23.60;15.40;;;;;;;0.79;61.58;100316.71;104610;1267;78524;-79
2023/01/28 14:21:10;;;;;;;22.60;14.90;;;;;;;0.69;61.62;100315.73;104699;1266;59417;-78
2023/01/28 14:23:44;;;;;;;29.00;17.20;;;;;;;0.57;61.77;100314.98;104820;1268;65089;-79
2023/01/28 14:26:34;;;;;;;55.40;32.90;;;;;;;0.46;61.90;100316.83;104886;1270;59670;-79
2023/01/28 14:29:56;;;;;;;34.20;20.10;;;;;;;0.36;61.97;100321.55;104813;1267;65320;-79
2023/01/28 14:32:27;;;;;;;30.10;18.50;;;;;;;0.23;62.14;100320.66;105116;1264;59349;-78
2023/01/28 14:35:00;;;;;;;28.60;17.70;;;;;;;0.15;62.29;100320.60;105237;1263;59298;-79
2023/01/28 14:37:30;;;;;;;46.70;28.90;;;;;;;0.09;62.41;100321.67;105406;1259;64114;-79
2023/01/28 14:40:03;;;;;;;32.70;18.80;;;;;;;0.04;62.53;100320.15;105277;1262;59253;-80
2023/01/28 14:42:38;;;;;;;29.60;17.40;;;;;;;-0.02;62.69;100316.38;105372;1259;65282;-80
2023/01/28 14:45:23;;;;;;;27.40;16.80;;;;;;;-0.08;62.86;100319.55;105299;1264;59573;-80
2023/01/28 14:48:05;;;;;;;27.20;15.90;;;;;;;-0.14;63.07;100322.37;105414;1259;59751;-80
2023/01/28 14:50:51;;;;;;;26.60;15.20;;;;;;;-0.20;63.22;100320.34;105215;1259;65909;-80
2023/01/28 14:53:34;;;;;;;24.90;16.50;;;;;;;-0.26;63.43;100321.59;105345;1263;59942;-79
2023/01/28 14:56:34;;;;;;;26.10;15.80;;;;;;;-0.30;63.51;100322.09;105600;1260;64423;-77
2023/01/28 14:59:34;;;;;;;27.70;16.90;;;;;;;-0.35;63.61;100322.10;105879;1257;59928;-77
2023/01/28 15:02:11;;;;;;;27.30;16.30;;;;;;;-0.42;63.80;100322.69;106398;1258;59742;-78
2023/01/28 15:04:39;;;;;;;27.40;16.50;;;;;;;-0.48;63.93;100324.10;105579;1259;64929;-78
2023/01/28 15:07:26;;;;;;;24.40;15.70;;;;;;;-0.52;64.07;100327.00;105522;1258;59783;-78
2023/01/28 15:10:02;;;;;;;24.80;15.50;;;;;;;-0.56;64.16;100324.55;104880;1258;64413;-80
2023/01/28 15:12:36;;;;;;;24.90;15.40;;;;;;;-0.59;64.34;100323.27;105267;1259;59672;-81
2023/01/28 15:15:15;;;;;;;24.90;16.50;;;;;;;-0.61;64.42;100326.98;105255;1259;59701;-79
2023/01/28 15:17:45;;;;;;;29.10;16.70;;;;;;;-0.62;64.61;100330.45;105455;1262;65262;-79
2023/01/28 15:20:23;;;;;;;27.80;16.90;;;;;;;-0.65;64.78;100328.33;105290;1258;59651;-78
2023/01/28 15:22:51;;;;;;;24.50;16.20;;;;;;;-0.68;64.89;100329.27;105428;1259;65050;-80
2023/01/28 15:25:21;;;;;;;25.80;16.40;;;;;;;-0.71;64.99;100331.11;105514;1259;59583;-80
2023/01/28 15:27:50;;;;;;;24.40;16.30;;;;;;;-0.74;65.20;100333.66;105421;1259;59658;-82
2023/01/28 15:30:31;;;;;;;27.60;16.90;;;;;;;-0.76;65.38;100336.14;105594;1258;65827;-80
2023/01/28 15:33:05;;;;;;;26.80;17.20;;;;;;;-0.78;65.47;100338.27;105555;1258;60054;-80
2023/01/28 15:35:34;;;;;;;25.10;16.40;;;;;;;-0.78;65.58;100342.26;105538;1262;63847;-80
2023/01/28 15:38:02;;;;;;;25.20;16.10;;;;;;;-0.79;65.63;100345.03;105556;1258;59760;-81
2023/01/28 15:40:40;;;;;;;26.10;16.90;;;;;;;-0.78;65.71;100349.34;105547;1259;59797;-79
2023/01/28 15:43:18;;;;;;;26.40;16.70;;;;;;;-0.79;65.74;100356.98;105607;1259;64948;-80
2023/01/28 15:45:54;;;;;;;29.90;18.70;;;;;;;-0.81;65.84;100358.59;105769;1256;59961;-80
2023/01/28 15:48:27;;;;;;;27.30;17.30;;;;;;;-0.83;65.88;100365.39;105696;1256;65626;-81
2023/01/28 15:51:03;;;;;;;28.40;18.40;;;;;;;-0.84;66.08;100370.48;105669;1256;59619;-82
2023/01/28 15:53:55;;;;;;;27.00;18.00;;;;;;;-0.86;66.22;100373.28;105699;1256;59615;-81
2023/01/28 15:56:25;;;;;;;28.40;17.50;;;;;;;-0.85;66.28;100375.88;105671;1261;65662;-81
2023/01/28 15:58:55;;;;;;;29.60;17.60;;;;;;;-0.84;66.48;100381.89;105751;1259;59715;-82
2023/01/28 16:01:25;;;;;;;26.30;17.60;;;;;;;-0.82;66.55;100386.48;105721;1256;65691;-80
2023/01/28 16:04:02;;;;;;;28.20;17.20;;;;;;;-0.81;66.56;100382.96;105662;1255;59641;-81
2023/01/28 16:06:35;;;;;;;25.20;17.00;;;;;;;-0.80;66.64;100389.52;105631;1256;59603;-80
2023/01/28 16:09:18;;;;;;;25.40;16.00;;;;;;;-0.80;66.72;100390.38;105791;1259;65987;-80
2023/01/28 16:11:46;;;;;;;26.50;17.10;;;;;;;-0.79;66.84;100391.38;105639;1259;59638;-81
2023/01/28 16:14:24;;;;;;;27.90;16.40;;;;;;;-0.79;66.97;100389.82;105708;1256;65565;-80
2023/01/28 16:16:56;;;;;;;24.80;16.40;;;;;;;-0.79;67.07;100392.23;105444;1260;59599;-79
2023/01/28 16:19:35;;;;;;;25.10;16.50;;;;;;;-0.79;67.12;100394.30;105494;1256;59725;-80
2023/01/28 16:22:04;;;;;;;25.10;16.40;;;;;;;-0.78;67.18;100391.16;105486;1258;65859;-80
2023/01/28 16:24:36;;;;;;;26.80;16.10;;;;;;;-0.78;67.25;100392.35;105496;1258;59648;-81
2023/01/28 16:27:17;;;;;;;24.10;15.70;;;;;;;-0.77;67.27;100385.27;105414;1261;65565;-78
2023/01/28 16:29:45;;;;;;;24.00;14.90;;;;;;;-0.77;67.31;100385.61;105450;1255;59900;-80
2023/01/28 16:32:31;;;;;;;22.50;14.60;;;;;;;-0.77;67.42;100386.65;105442;1260;59535;-80
2023/01/28 16:35:00;;;;;;;35.60;20.10;;;;;;;-0.79;67.46;100384.81;105523;1256;73894;-81
2023/01/28 16:37:28;;;;;;;30.80;18.40;;;;;;;-0.80;67.54;100388.48;105651;1256;59955;-80
2023/01/28 16:39:56;;;;;;;27.20;15.80;;;;;;;-0.79;67.55;100385.85;105702;1257;64516;-80
2023/01/28 16:42:30;;;;;;;27.20;16.10;;;;;;;-0.79;67.54;100377.90;105629;1258;59613;-81
2023/01/28 16:44:58;;;;;;;24.80;15.80;;;;;;;-0.81;67.53;100375.70;105618;1256;59634;-80
2023/01/28 16:47:27;;;;;;;25.50;15.00;;;;;;;-0.81;67.61;100377.96;105735;1258;65658;-80
2023/01/28 16:49:56;;;;;;;24.70;15.60;;;;;;;-0.82;67.62;100374.20;105739;1256;59928;-81
2023/01/28 16:52:24;;;;;;;25.30;14.90;;;;;;;-0.83;67.57;100378.73;105709;1256;65570;-80
2023/01/28 16:54:52;;;;;;;22.00;14.40;;;;;;;-0.84;67.50;100378.73;105691;1256;59654;-81
2023/01/28 16:57:20;;;;;;;23.50;15.00;;;;;;;-0.85;67.50;100373.95;105712;1259;59640;-81
2023/01/28 16:59:48;;;;;;;24.30;15.30;;;;;;;-0.86;67.44;100374.68;105775;1258;65917;-81
2023/01/28 17:02:16;;;;;;;24.50;15.20;;;;;;;-0.87;67.42;100372.96;105652;1256;60364;-81
2023/01/28 17:04:46;;;;;;;21.30;14.80;;;;;;;-0.87;67.36;100375.20;105596;1256;65731;-81
2023/01/28 17:07:17;;;;;;;22.40;14.90;;;;;;;-0.88;67.32;100371.60;105634;1256;59626;-81
2023/01/28 17:09:47;;;;;;;24.40;15.30;;;;;;;-0.89;67.31;100375.44;105516;1256;59705;-80
2023/01/28 17:12:15;;;;;;;25.60;15.00;;;;;;;-0.89;67.29;100381.30;105653;1260;65533;-80